sensor_id;sensor_type;location;lat;lon;timestamp;temperature;humidity
19930;DHT22;10127;47.780;9.606;2023-06-10T00:00:24;18.90;90.40
19930;DHT22;10127;47.780;9.606;2023-06-10T00:02:49;18.80;90.50
19930;DHT22;10127;47.780;9.606;2023-06-10T00:05:15;18.90;90.50
19930;DHT22;10127;47.780;9.606;2023-06-10T00:07:41;18.80;90.60
19930;DHT22;10127;47.780;9.606;2023-06-10T00:10:07;18.70;90.70
19930;DHT22;10127;47.780;9.606;2023-06-10T00:12:34;18.70;91.00
19930;DHT22;10127;47.780;9.606;2023-06-10T00:15:04;18.70;91.00
19930;DHT22;10127;47.780;9.606;2023-06-10T00:17:30;18.60;91.10
19930;DHT22;10127;47.780;9.606;2023-06-10T00:19:56;18.60;91.30
19930;DHT22;10127;47.780;9.606;2023-06-10T00:22:23;18.50;91.40
19930;DHT22;10127;47.780;9.606;2023-06-10T00:24:49;18.50;91.40
19930;DHT22;10127;47.780;9.606;2023-06-10T00:27:16;18.50;91.40
19930;DHT22;10127;47.780;9.606;2023-06-10T00:29:41;18.50;91.50
19930;DHT22;10127;47.780;9.606;2023-06-10T00:32:07;18.40;91.70
19930;DHT22;10127;47.780;9.606;2023-06-10T00:34:33;18.50;91.70
19930;DHT22;10127;47.780;9.606;2023-06-10T00:36:59;18.40;91.90
19930;DHT22;10127;47.780;9.606;2023-06-10T00:39:24;18.30;92.00
19930;DHT22;10127;47.780;9.606;2023-06-10T00:41:50;18.30;92.10
19930;DHT22;10127;47.780;9.606;2023-06-10T00:44:22;18.30;92.20
19930;DHT22;10127;47.780;9.606;2023-06-10T00:46:48;18.20;92.40
19930;DHT22;10127;47.780;9.606;2023-06-10T00:49:16;18.20;92.50
19930;DHT22;10127;47.780;9.606;2023-06-10T00:51:42;18.20;92.60
19930;DHT22;10127;47.780;9.606;2023-06-10T00:54:08;18.20;92.60
19930;DHT22;10127;47.780;9.606;2023-06-10T00:56:34;18.20;92.60
19930;DHT22;10127;47.780;9.606;2023-06-10T00:59:00;18.10;92.80
19930;DHT22;10127;47.780;9.606;2023-06-10T01:01:26;18.00;93.00
19930;DHT22;10127;47.780;9.606;2023-06-10T01:03:52;18.00;93.20
19930;DHT22;10127;47.780;9.606;2023-06-10T01:09:41;18.00;93.30
19930;DHT22;10127;47.780;9.606;2023-06-10T01:12:15;18.00;93.40
19930;DHT22;10127;47.780;9.606;2023-06-10T01:14:42;18.00;93.40
19930;DHT22;10127;47.780;9.606;2023-06-10T01:17:11;18.00;93.40
19930;DHT22;10127;47.780;9.606;2023-06-10T01:19:37;17.90;93.60
19930;DHT22;10127;47.780;9.606;2023-06-10T01:22:03;17.90;93.80
19930;DHT22;10127;47.780;9.606;2023-06-10T01:24:29;17.80;93.90
19930;DHT22;10127;47.780;9.606;2023-06-10T01:27:00;17.80;94.00
19930;DHT22;10127;47.780;9.606;2023-06-10T01:29:35;17.80;94.10
19930;DHT22;10127;47.780;9.606;2023-06-10T01:32:10;17.70;94.30
19930;DHT22;10127;47.780;9.606;2023-06-10T01:34:44;17.60;94.40
19930;DHT22;10127;47.780;9.606;2023-06-10T01:37:19;17.60;94.50
19930;DHT22;10127;47.780;9.606;2023-06-10T01:39:48;17.70;94.50
19930;DHT22;10127;47.780;9.606;2023-06-10T01:42:14;17.60;94.60
19930;DHT22;10127;47.780;9.606;2023-06-10T01:44:46;17.60;94.80
19930;DHT22;10127;47.780;9.606;2023-06-10T01:47:12;17.60;94.80
19930;DHT22;10127;47.780;9.606;2023-06-10T01:49:38;17.50;95.00
19930;DHT22;10127;47.780;9.606;2023-06-10T01:52:04;17.50;95.20
19930;DHT22;10127;47.780;9.606;2023-06-10T01:54:29;17.40;95.30
19930;DHT22;10127;47.780;9.606;2023-06-10T01:56:55;17.40;95.40
19930;DHT22;10127;47.780;9.606;2023-06-10T01:59:20;17.40;95.50
19930;DHT22;10127;47.780;9.606;2023-06-10T02:01:46;17.40;95.60
19930;DHT22;10127;47.780;9.606;2023-06-10T02:04:12;17.30;95.70
19930;DHT22;10127;47.780;9.606;2023-06-10T02:06:37;17.30;95.90
19930;DHT22;10127;47.780;9.606;2023-06-10T02:09:03;17.30;96.00
19930;DHT22;10127;47.780;9.606;2023-06-10T02:11:29;17.30;95.90
19930;DHT22;10127;47.780;9.606;2023-06-10T02:13:55;17.30;96.00
19930;DHT22;10127;47.780;9.606;2023-06-10T02:16:20;17.30;96.10
19930;DHT22;10127;47.780;9.606;2023-06-10T02:18:46;17.20;96.30
19930;DHT22;10127;47.780;9.606;2023-06-10T02:21:14;17.10;96.40
19930;DHT22;10127;47.780;9.606;2023-06-10T02:23:39;17.10;96.30
19930;DHT22;10127;47.780;9.606;2023-06-10T02:26:05;17.20;96.50
19930;DHT22;10127;47.780;9.606;2023-06-10T02:28:31;17.20;96.50
19930;DHT22;10127;47.780;9.606;2023-06-10T02:31:03;17.10;96.70
19930;DHT22;10127;47.780;9.606;2023-06-10T02:33:29;17.00;97.20
19930;DHT22;10127;47.780;9.606;2023-06-10T02:35:55;17.00;97.00
19930;DHT22;10127;47.780;9.606;2023-06-10T02:38:21;17.00;97.10
19930;DHT22;10127;47.780;9.606;2023-06-10T02:40:47;16.90;97.20
19930;DHT22;10127;47.780;9.606;2023-06-10T02:43:12;16.90;97.30
19930;DHT22;10127;47.780;9.606;2023-06-10T02:45:38;16.80;97.50
19930;DHT22;10127;47.780;9.606;2023-06-10T02:48:04;16.80;97.60
19930;DHT22;10127;47.780;9.606;2023-06-10T02:50:29;16.70;97.80
19930;DHT22;10127;47.780;9.606;2023-06-10T02:52:55;16.70;98.00
19930;DHT22;10127;47.780;9.606;2023-06-10T02:55:20;16.60;98.10
19930;DHT22;10127;47.780;9.606;2023-06-10T02:57:46;16.60;98.10
19930;DHT22;10127;47.780;9.606;2023-06-10T03:00:12;16.60;98.20
19930;DHT22;10127;47.780;9.606;2023-06-10T03:02:39;16.60;98.30
19930;DHT22;10127;47.780;9.606;2023-06-10T03:05:05;16.60;98.30
19930;DHT22;10127;47.780;9.606;2023-06-10T03:07:35;16.60;98.50
19930;DHT22;10127;47.780;9.606;2023-06-10T03:10:01;16.60;98.40
19930;DHT22;10127;47.780;9.606;2023-06-10T03:12:27;16.60;98.40
19930;DHT22;10127;47.780;9.606;2023-06-10T03:14:52;16.50;98.60
19930;DHT22;10127;47.780;9.606;2023-06-10T03:17:18;16.50;98.70
19930;DHT22;10127;47.780;9.606;2023-06-10T03:19:43;16.40;98.80
19930;DHT22;10127;47.780;9.606;2023-06-10T03:22:10;16.50;98.90
19930;DHT22;10127;47.780;9.606;2023-06-10T03:24:37;16.40;99.00
19930;DHT22;10127;47.780;9.606;2023-06-10T03:27:07;16.40;99.10
19930;DHT22;10127;47.780;9.606;2023-06-10T03:29:33;16.40;99.00
19930;DHT22;10127;47.780;9.606;2023-06-10T03:31:58;16.40;99.10
19930;DHT22;10127;47.780;9.606;2023-06-10T03:34:24;16.40;99.10
19930;DHT22;10127;47.780;9.606;2023-06-10T03:36:49;16.40;99.10
19930;DHT22;10127;47.780;9.606;2023-06-10T03:39:15;16.40;99.00
19930;DHT22;10127;47.780;9.606;2023-06-10T03:41:41;16.40;99.10
19930;DHT22;10127;47.780;9.606;2023-06-10T03:44:07;16.40;99.20
19930;DHT22;10127;47.780;9.606;2023-06-10T03:46:32;16.40;99.20
19930;DHT22;10127;47.780;9.606;2023-06-10T03:48:58;16.40;99.30
19930;DHT22;10127;47.780;9.606;2023-06-10T03:51:26;16.30;99.30
19930;DHT22;10127;47.780;9.606;2023-06-10T03:53:52;16.30;99.50
19930;DHT22;10127;47.780;9.606;2023-06-10T03:56:18;16.20;99.70
19930;DHT22;10127;47.780;9.606;2023-06-10T03:58:43;16.20;99.80
19930;DHT22;10127;47.780;9.606;2023-06-10T04:01:09;16.10;99.90
19930;DHT22;10127;47.780;9.606;2023-06-10T04:03:36;16.00;99.90
19930;DHT22;10127;47.780;9.606;2023-06-10T04:06:01;16.10;99.90
19930;DHT22;10127;47.780;9.606;2023-06-10T04:08:28;16.10;99.90
19930;DHT22;10127;47.780;9.606;2023-06-10T04:10:53;16.20;99.90
19930;DHT22;10127;47.780;9.606;2023-06-10T04:13:19;16.20;99.90
19930;DHT22;10127;47.780;9.606;2023-06-10T04:15:45;16.20;99.90
19930;DHT22;10127;47.780;9.606;2023-06-10T04:18:10;16.30;99.90
19930;DHT22;10127;47.780;9.606;2023-06-10T04:20:36;16.30;99.90
19930;DHT22;10127;47.780;9.606;2023-06-10T04:23:01;16.30;99.90
19930;DHT22;10127;47.780;9.606;2023-06-10T04:25:27;16.30;99.90
19930;DHT22;10127;47.780;9.606;2023-06-10T04:27:54;16.40;99.90
19930;DHT22;10127;47.780;9.606;2023-06-10T04:30:20;16.40;99.90
19930;DHT22;10127;47.780;9.606;2023-06-10T04:32:45;16.70;99.70
19930;DHT22;10127;47.780;9.606;2023-06-10T04:35:13;17.30;98.60
19930;DHT22;10127;47.780;9.606;2023-06-10T04:37:40;17.60;97.90
19930;DHT22;10127;47.780;9.606;2023-06-10T04:40:07;17.60;97.70
19930;DHT22;10127;47.780;9.606;2023-06-10T04:42:33;17.30;98.00
19930;DHT22;10127;47.780;9.606;2023-06-10T04:44:59;17.20;98.40
19930;DHT22;10127;47.780;9.606;2023-06-10T04:47:26;16.80;99.10
19930;DHT22;10127;47.780;9.606;2023-06-10T04:49:52;16.70;99.50
19930;DHT22;10127;47.780;9.606;2023-06-10T04:52:17;16.70;99.60
19930;DHT22;10127;47.780;9.606;2023-06-10T04:54:43;16.70;99.80
19930;DHT22;10127;47.780;9.606;2023-06-10T04:57:09;16.60;99.90
19930;DHT22;10127;47.780;9.606;2023-06-10T04:59:37;16.90;99.80
19930;DHT22;10127;47.780;9.606;2023-06-10T05:02:04;16.90;99.60
19930;DHT22;10127;47.780;9.606;2023-06-10T05:04:30;16.80;99.70
19930;DHT22;10127;47.780;9.606;2023-06-10T05:06:56;16.80;99.90
19930;DHT22;10127;47.780;9.606;2023-06-10T05:09:28;16.90;99.90
19930;DHT22;10127;47.780;9.606;2023-06-10T05:11:54;16.80;99.90
19930;DHT22;10127;47.780;9.606;2023-06-10T05:14:20;16.80;99.90
19930;DHT22;10127;47.780;9.606;2023-06-10T05:16:47;16.80;99.90
19930;DHT22;10127;47.780;9.606;2023-06-10T05:19:19;17.00;99.90
19930;DHT22;10127;47.780;9.606;2023-06-10T05:21:52;17.00;99.90
19930;DHT22;10127;47.780;9.606;2023-06-10T05:24:18;16.90;99.90
19930;DHT22;10127;47.780;9.606;2023-06-10T05:26:43;17.00;99.90
19930;DHT22;10127;47.780;9.606;2023-06-10T05:29:09;17.20;99.90
19930;DHT22;10127;47.780;9.606;2023-06-10T05:31:35;17.30;99.70
19930;DHT22;10127;47.780;9.606;2023-06-10T05:34:01;17.40;99.60
19930;DHT22;10127;47.780;9.606;2023-06-10T05:36:26;17.50;99.50
19930;DHT22;10127;47.780;9.606;2023-06-10T05:38:52;17.60;99.40
19930;DHT22;10127;47.780;9.606;2023-06-10T05:41:18;17.70;99.40
19930;DHT22;10127;47.780;9.606;2023-06-10T05:43:44;17.60;99.50
19930;DHT22;10127;47.780;9.606;2023-06-10T05:46:09;17.70;99.50
19930;DHT22;10127;47.780;9.606;2023-06-10T05:48:35;17.80;99.20
19930;DHT22;10127;47.780;9.606;2023-06-10T05:51:01;17.90;98.90
19930;DHT22;10127;47.780;9.606;2023-06-10T05:53:26;18.00;98.80
19930;DHT22;10127;47.780;9.606;2023-06-10T05:55:52;18.10;98.60
19930;DHT22;10127;47.780;9.606;2023-06-10T05:58:22;18.20;98.60
19930;DHT22;10127;47.780;9.606;2023-06-10T06:00:48;18.20;98.60
19930;DHT22;10127;47.780;9.606;2023-06-10T06:03:14;18.20;98.50
19930;DHT22;10127;47.780;9.606;2023-06-10T06:05:39;18.30;98.60
19930;DHT22;10127;47.780;9.606;2023-06-10T06:08:05;18.20;98.70
19930;DHT22;10127;47.780;9.606;2023-06-10T06:10:31;18.20;98.60
19930;DHT22;10127;47.780;9.606;2023-06-10T06:12:56;18.30;98.60
19930;DHT22;10127;47.780;9.606;2023-06-10T06:15:22;18.40;98.40
19930;DHT22;10127;47.780;9.606;2023-06-10T06:17:48;18.40;98.60
19930;DHT22;10127;47.780;9.606;2023-06-10T06:20:13;18.40;98.60
19930;DHT22;10127;47.780;9.606;2023-06-10T06:22:39;18.50;98.50
19930;DHT22;10127;47.780;9.606;2023-06-10T06:25:05;18.60;98.40
19930;DHT22;10127;47.780;9.606;2023-06-10T06:27:31;18.50;98.40
19930;DHT22;10127;47.780;9.606;2023-06-10T06:29:56;18.70;98.40
19930;DHT22;10127;47.780;9.606;2023-06-10T06:32:22;18.70;98.30
19930;DHT22;10127;47.780;9.606;2023-06-10T06:34:50;18.80;98.10
19930;DHT22;10127;47.780;9.606;2023-06-10T06:37:22;18.80;98.00
19930;DHT22;10127;47.780;9.606;2023-06-10T06:39:52;18.90;98.00
19930;DHT22;10127;47.780;9.606;2023-06-10T06:42:18;18.90;97.90
19930;DHT22;10127;47.780;9.606;2023-06-10T06:44:44;18.90;98.00
19930;DHT22;10127;47.780;9.606;2023-06-10T06:47:10;19.00;97.90
19930;DHT22;10127;47.780;9.606;2023-06-10T06:49:36;19.10;98.00
19930;DHT22;10127;47.780;9.606;2023-06-10T06:52:02;19.10;97.60
19930;DHT22;10127;47.780;9.606;2023-06-10T06:54:27;19.20;97.60
19930;DHT22;10127;47.780;9.606;2023-06-10T07:17:30;19.70;97.10
19930;DHT22;10127;47.780;9.606;2023-06-10T07:19:56;19.90;96.90
19930;DHT22;10127;47.780;9.606;2023-06-10T07:22:25;19.90;96.90
19930;DHT22;10127;47.780;9.606;2023-06-10T07:24:50;19.90;96.70
19930;DHT22;10127;47.780;9.606;2023-06-10T07:27:17;19.90;96.60
19930;DHT22;10127;47.780;9.606;2023-06-10T07:29:43;20.00;96.50
19930;DHT22;10127;47.780;9.606;2023-06-10T07:32:08;20.10;96.40
19930;DHT22;10127;47.780;9.606;2023-06-10T07:34:34;20.20;96.40
19930;DHT22;10127;47.780;9.606;2023-06-10T07:36:59;20.30;96.20
19930;DHT22;10127;47.780;9.606;2023-06-10T07:39:25;20.40;96.00
19930;DHT22;10127;47.780;9.606;2023-06-10T07:41:51;20.40;96.00
19930;DHT22;10127;47.780;9.606;2023-06-10T07:44:19;20.40;96.30
19930;DHT22;10127;47.780;9.606;2023-06-10T07:46:44;20.40;96.10
19930;DHT22;10127;47.780;9.606;2023-06-10T07:49:10;20.50;96.00
19930;DHT22;10127;47.780;9.606;2023-06-10T07:51:36;20.50;95.90
19930;DHT22;10127;47.780;9.606;2023-06-10T07:54:02;20.60;95.90
19930;DHT22;10127;47.780;9.606;2023-06-10T07:56:27;20.80;95.60
19930;DHT22;10127;47.780;9.606;2023-06-10T07:58:53;20.90;95.40
19930;DHT22;10127;47.780;9.606;2023-06-10T08:01:18;20.90;95.40
19930;DHT22;10127;47.780;9.606;2023-06-10T08:03:44;21.10;94.90
19930;DHT22;10127;47.780;9.606;2023-06-10T08:06:10;21.20;94.60
19930;DHT22;10127;47.780;9.606;2023-06-10T08:08:37;21.30;94.50
19930;DHT22;10127;47.780;9.606;2023-06-10T08:11:07;21.30;94.30
19930;DHT22;10127;47.780;9.606;2023-06-10T08:13:33;21.40;94.20
19930;DHT22;10127;47.780;9.606;2023-06-10T08:15:58;21.60;93.90
19930;DHT22;10127;47.780;9.606;2023-06-10T08:18:24;21.60;93.70
19930;DHT22;10127;47.780;9.606;2023-06-10T08:20:49;21.60;93.50
19930;DHT22;10127;47.780;9.606;2023-06-10T08:23:15;21.70;93.70
19930;DHT22;10127;47.780;9.606;2023-06-10T08:25:40;21.80;93.50
19930;DHT22;10127;47.780;9.606;2023-06-10T08:28:06;21.90;93.20
19930;DHT22;10127;47.780;9.606;2023-06-10T08:30:32;21.90;93.00
19930;DHT22;10127;47.780;9.606;2023-06-10T08:32:57;22.00;92.90
19930;DHT22;10127;47.780;9.606;2023-06-10T08:35:23;22.00;92.80
19930;DHT22;10127;47.780;9.606;2023-06-10T08:37:49;22.10;92.70
19930;DHT22;10127;47.780;9.606;2023-06-10T08:40:15;22.20;92.40
19930;DHT22;10127;47.780;9.606;2023-06-10T08:45:17;22.30;92.40
19930;DHT22;10127;47.780;9.606;2023-06-10T08:47:50;22.40;92.20
19930;DHT22;10127;47.780;9.606;2023-06-10T08:50:19;22.40;91.90
19930;DHT22;10127;47.780;9.606;2023-06-10T08:52:48;22.60;91.60
19930;DHT22;10127;47.780;9.606;2023-06-10T08:55:33;22.60;91.00
19930;DHT22;10127;47.780;9.606;2023-06-10T08:58:01;22.80;90.60
19930;DHT22;10127;47.780;9.606;2023-06-10T09:00:28;22.90;90.00
19930;DHT22;10127;47.780;9.606;2023-06-10T09:02:55;23.00;90.00
19930;DHT22;10127;47.780;9.606;2023-06-10T09:05:21;23.10;88.50
19930;DHT22;10127;47.780;9.606;2023-06-10T09:07:48;23.20;86.30
19930;DHT22;10127;47.780;9.606;2023-06-10T09:10:14;23.30;86.30
19930;DHT22;10127;47.780;9.606;2023-06-10T09:12:39;23.40;85.90
19930;DHT22;10127;47.780;9.606;2023-06-10T09:15:06;23.40;85.90
19930;DHT22;10127;47.780;9.606;2023-06-10T09:17:32;23.50;85.70
19930;DHT22;10127;47.780;9.606;2023-06-10T09:19:59;23.50;84.90
19930;DHT22;10127;47.780;9.606;2023-06-10T09:22:28;23.50;84.90
19930;DHT22;10127;47.780;9.606;2023-06-10T09:25:04;23.60;83.70
19930;DHT22;10127;47.780;9.606;2023-06-10T09:27:31;23.70;83.60
19930;DHT22;10127;47.780;9.606;2023-06-10T09:30:00;23.80;83.80
19930;DHT22;10127;47.780;9.606;2023-06-10T09:32:26;24.00;83.60
19930;DHT22;10127;47.780;9.606;2023-06-10T09:34:52;24.10;83.20
19930;DHT22;10127;47.780;9.606;2023-06-10T09:37:22;24.20;82.90
19930;DHT22;10127;47.780;9.606;2023-06-10T09:40:04;24.40;82.80
19930;DHT22;10127;47.780;9.606;2023-06-10T09:42:33;24.50;81.40
19930;DHT22;10127;47.780;9.606;2023-06-10T09:44:59;24.60;82.30
19930;DHT22;10127;47.780;9.606;2023-06-10T09:47:25;24.80;80.70
19930;DHT22;10127;47.780;9.606;2023-06-10T09:49:50;25.00;79.80
19930;DHT22;10127;47.780;9.606;2023-06-10T09:52:23;25.10;80.10
19930;DHT22;10127;47.780;9.606;2023-06-10T09:54:50;25.30;77.30
19930;DHT22;10127;47.780;9.606;2023-06-10T09:57:16;25.50;77.60
19930;DHT22;10127;47.780;9.606;2023-06-10T09:59:42;25.70;77.00
19930;DHT22;10127;47.780;9.606;2023-06-10T10:02:14;25.80;76.90
19930;DHT22;10127;47.780;9.606;2023-06-10T10:04:39;25.70;78.20
19930;DHT22;10127;47.780;9.606;2023-06-10T10:07:05;25.30;79.70
19930;DHT22;10127;47.780;9.606;2023-06-10T10:09:32;25.10;79.90
19930;DHT22;10127;47.780;9.606;2023-06-10T10:11:59;24.80;80.00
19930;DHT22;10127;47.780;9.606;2023-06-10T10:14:28;25.00;79.30
19930;DHT22;10127;47.780;9.606;2023-06-10T10:16:55;25.00;79.90
19930;DHT22;10127;47.780;9.606;2023-06-10T10:19:28;25.00;79.80
19930;DHT22;10127;47.780;9.606;2023-06-10T10:22:01;24.80;79.20
19930;DHT22;10127;47.780;9.606;2023-06-10T10:24:50;24.70;79.70
19930;DHT22;10127;47.780;9.606;2023-06-10T10:27:59;24.70;79.60
19930;DHT22;10127;47.780;9.606;2023-06-10T10:30:28;24.80;79.60
19930;DHT22;10127;47.780;9.606;2023-06-10T10:32:58;24.70;80.20
19930;DHT22;10127;47.780;9.606;2023-06-10T10:35:26;25.10;79.60
19930;DHT22;10127;47.780;9.606;2023-06-10T10:37:53;25.50;77.80
19930;DHT22;10127;47.780;9.606;2023-06-10T10:40:21;25.90;76.00
19930;DHT22;10127;47.780;9.606;2023-06-10T10:42:51;26.00;74.20
19930;DHT22;10127;47.780;9.606;2023-06-10T10:45:23;25.90;77.30
19930;DHT22;10127;47.780;9.606;2023-06-10T10:47:53;25.60;78.40
19930;DHT22;10127;47.780;9.606;2023-06-10T10:50:20;25.60;78.50
19930;DHT22;10127;47.780;9.606;2023-06-10T10:53:03;25.60;78.10
19930;DHT22;10127;47.780;9.606;2023-06-10T10:55:29;25.60;77.50
19930;DHT22;10127;47.780;9.606;2023-06-10T10:57:57;25.40;77.60
19930;DHT22;10127;47.780;9.606;2023-06-10T11:00:32;25.40;77.80
19930;DHT22;10127;47.780;9.606;2023-06-10T11:03:07;25.30;77.30
19930;DHT22;10127;47.780;9.606;2023-06-10T11:05:38;25.30;77.50
19930;DHT22;10127;47.780;9.606;2023-06-10T11:08:04;25.40;77.30
19930;DHT22;10127;47.780;9.606;2023-06-10T11:10:39;25.60;77.50
19930;DHT22;10127;47.780;9.606;2023-06-10T11:13:15;25.80;76.50
19930;DHT22;10127;47.780;9.606;2023-06-10T11:15:48;25.90;76.30
19930;DHT22;10127;47.780;9.606;2023-06-10T11:18:30;26.00;75.50
19930;DHT22;10127;47.780;9.606;2023-06-10T11:21:03;26.30;74.50
19930;DHT22;10127;47.780;9.606;2023-06-10T11:23:33;26.70;72.30
19930;DHT22;10127;47.780;9.606;2023-06-10T11:28:41;27.10;72.30
19930;DHT22;10127;47.780;9.606;2023-06-10T11:31:08;27.30;72.00
19930;DHT22;10127;47.780;9.606;2023-06-10T11:33:33;27.10;72.10
19930;DHT22;10127;47.780;9.606;2023-06-10T11:36:07;26.80;72.90
19930;DHT22;10127;47.780;9.606;2023-06-10T11:38:33;26.70;73.00
19930;DHT22;10127;47.780;9.606;2023-06-10T11:40:59;26.70;73.50
19930;DHT22;10127;47.780;9.606;2023-06-10T11:43:31;26.40;73.40
19930;DHT22;10127;47.780;9.606;2023-06-10T11:45:56;26.10;73.60
19930;DHT22;10127;47.780;9.606;2023-06-10T11:48:22;26.10;73.70
19930;DHT22;10127;47.780;9.606;2023-06-10T11:50:47;26.20;73.30
19930;DHT22;10127;47.780;9.606;2023-06-10T11:53:13;26.20;73.20
19930;DHT22;10127;47.780;9.606;2023-06-10T11:55:47;26.10;72.60
19930;DHT22;10127;47.780;9.606;2023-06-10T11:58:22;26.00;72.70
19930;DHT22;10127;47.780;9.606;2023-06-10T12:00:50;26.20;72.20
19930;DHT22;10127;47.780;9.606;2023-06-10T12:03:17;26.30;71.60
19930;DHT22;10127;47.780;9.606;2023-06-10T12:08:24;26.50;72.60
19930;DHT22;10127;47.780;9.606;2023-06-10T12:10:50;26.40;73.00
19930;DHT22;10127;47.780;9.606;2023-06-10T12:13:16;26.50;73.20
19930;DHT22;10127;47.780;9.606;2023-06-10T12:15:52;26.60;72.80
19930;DHT22;10127;47.780;9.606;2023-06-10T12:18:22;26.60;71.50
19930;DHT22;10127;47.780;9.606;2023-06-10T12:20:48;26.80;71.50
19930;DHT22;10127;47.780;9.606;2023-06-10T12:23:16;27.00;71.70
19930;DHT22;10127;47.780;9.606;2023-06-10T12:25:52;27.00;70.70
19930;DHT22;10127;47.780;9.606;2023-06-10T12:28:25;27.30;70.30
19930;DHT22;10127;47.780;9.606;2023-06-10T12:31:05;27.10;70.40
19930;DHT22;10127;47.780;9.606;2023-06-10T12:33:31;26.80;70.50
19930;DHT22;10127;47.780;9.606;2023-06-10T12:35:56;26.70;70.80
19930;DHT22;10127;47.780;9.606;2023-06-10T12:38:23;26.50;70.10
19930;DHT22;10127;47.780;9.606;2023-06-10T12:41:03;26.60;69.70
19930;DHT22;10127;47.780;9.606;2023-06-10T12:43:31;26.90;69.80
19930;DHT22;10127;47.780;9.606;2023-06-10T12:46:08;27.20;69.20
19930;DHT22;10127;47.780;9.606;2023-06-10T12:48:34;27.30;67.90
19930;DHT22;10127;47.780;9.606;2023-06-10T12:51:01;27.50;68.50
19930;DHT22;10127;47.780;9.606;2023-06-10T12:53:27;27.50;69.00
19930;DHT22;10127;47.780;9.606;2023-06-10T12:55:53;27.40;68.80
19930;DHT22;10127;47.780;9.606;2023-06-10T12:58:22;27.40;69.90
19930;DHT22;10127;47.780;9.606;2023-06-10T13:00:48;27.40;69.20
19930;DHT22;10127;47.780;9.606;2023-06-10T13:03:15;27.20;69.50
19930;DHT22;10127;47.780;9.606;2023-06-10T13:05:41;27.20;69.80
19930;DHT22;10127;47.780;9.606;2023-06-10T13:08:08;27.00;68.90
19930;DHT22;10127;47.780;9.606;2023-06-10T13:10:35;26.90;68.40
19930;DHT22;10127;47.780;9.606;2023-06-10T13:13:02;26.90;69.40
19930;DHT22;10127;47.780;9.606;2023-06-10T13:15:28;27.00;69.50
19930;DHT22;10127;47.780;9.606;2023-06-10T13:17:53;27.10;68.70
19930;DHT22;10127;47.780;9.606;2023-06-10T13:20:19;27.00;70.10
19930;DHT22;10127;47.780;9.606;2023-06-10T13:22:46;27.10;71.00
19930;DHT22;10127;47.780;9.606;2023-06-10T13:25:12;27.30;70.40
19930;DHT22;10127;47.780;9.606;2023-06-10T13:27:38;27.30;70.00
19930;DHT22;10127;47.780;9.606;2023-06-10T13:30:08;27.40;68.70
19930;DHT22;10127;47.780;9.606;2023-06-10T13:32:35;27.50;69.10
19930;DHT22;10127;47.780;9.606;2023-06-10T13:35:00;27.60;68.50
19930;DHT22;10127;47.780;9.606;2023-06-10T13:37:26;27.70;68.70
19930;DHT22;10127;47.780;9.606;2023-06-10T13:39:52;27.90;68.00
19930;DHT22;10127;47.780;9.606;2023-06-10T13:42:18;27.80;68.30
19930;DHT22;10127;47.780;9.606;2023-06-10T13:44:44;27.50;69.20
19930;DHT22;10127;47.780;9.606;2023-06-10T13:47:09;27.40;68.90
19930;DHT22;10127;47.780;9.606;2023-06-10T13:49:35;27.20;70.10
19930;DHT22;10127;47.780;9.606;2023-06-10T13:52:02;27.10;69.90
19930;DHT22;10127;47.780;9.606;2023-06-10T13:54:27;27.00;68.90
19930;DHT22;10127;47.780;9.606;2023-06-10T13:56:53;27.00;68.60
19930;DHT22;10127;47.780;9.606;2023-06-10T13:59:19;27.20;68.30
19930;DHT22;10127;47.780;9.606;2023-06-10T14:01:45;27.30;67.40
19930;DHT22;10127;47.780;9.606;2023-06-10T14:04:11;27.20;67.70
19930;DHT22;10127;47.780;9.606;2023-06-10T14:06:37;27.40;67.30
19930;DHT22;10127;47.780;9.606;2023-06-10T14:09:03;27.50;67.60
19930;DHT22;10127;47.780;9.606;2023-06-10T14:11:28;27.90;67.00
19930;DHT22;10127;47.780;9.606;2023-06-10T14:13:54;28.10;66.80
19930;DHT22;10127;47.780;9.606;2023-06-10T14:16:23;28.10;66.90
19930;DHT22;10127;47.780;9.606;2023-06-10T14:18:49;28.20;66.20
19930;DHT22;10127;47.780;9.606;2023-06-10T14:21:16;28.30;66.20
19930;DHT22;10127;47.780;9.606;2023-06-10T14:23:42;28.10;66.30
19930;DHT22;10127;47.780;9.606;2023-06-10T14:26:09;28.20;66.40
19930;DHT22;10127;47.780;9.606;2023-06-10T14:28:34;28.20;66.40
19930;DHT22;10127;47.780;9.606;2023-06-10T14:31:00;28.10;67.40
19930;DHT22;10127;47.780;9.606;2023-06-10T14:33:26;28.00;66.00
19930;DHT22;10127;47.780;9.606;2023-06-10T14:35:51;28.10;66.10
19930;DHT22;10127;47.780;9.606;2023-06-10T14:38:17;28.30;65.90
19930;DHT22;10127;47.780;9.606;2023-06-10T14:40:42;28.40;65.70
19930;DHT22;10127;47.780;9.606;2023-06-10T14:43:08;28.30;65.40
19930;DHT22;10127;47.780;9.606;2023-06-10T14:45:37;28.40;65.40
19930;DHT22;10127;47.780;9.606;2023-06-10T14:48:05;28.40;65.50
19930;DHT22;10127;47.780;9.606;2023-06-10T14:50:31;28.50;65.20
19930;DHT22;10127;47.780;9.606;2023-06-10T14:52:58;28.40;64.00
19930;DHT22;10127;47.780;9.606;2023-06-10T14:55:23;28.40;64.00
19930;DHT22;10127;47.780;9.606;2023-06-10T14:57:49;28.70;62.80
19930;DHT22;10127;47.780;9.606;2023-06-10T15:00:15;29.00;62.10
19930;DHT22;10127;47.780;9.606;2023-06-10T15:02:44;29.20;61.90
19930;DHT22;10127;47.780;9.606;2023-06-10T15:05:10;29.20;62.60
19930;DHT22;10127;47.780;9.606;2023-06-10T15:07:35;28.80;64.80
19930;DHT22;10127;47.780;9.606;2023-06-10T15:10:01;28.20;66.30
19930;DHT22;10127;47.780;9.606;2023-06-10T15:12:27;27.90;67.00
19930;DHT22;10127;47.780;9.606;2023-06-10T15:14:53;27.70;67.60
19930;DHT22;10127;47.780;9.606;2023-06-10T15:17:18;27.90;67.20
19930;DHT22;10127;47.780;9.606;2023-06-10T15:19:44;28.20;67.70
19930;DHT22;10127;47.780;9.606;2023-06-10T15:22:09;28.30;66.80
19930;DHT22;10127;47.780;9.606;2023-06-10T15:24:37;28.60;66.30
19930;DHT22;10127;47.780;9.606;2023-06-10T15:27:02;29.10;65.70
19930;DHT22;10127;47.780;9.606;2023-06-10T15:29:28;29.70;63.60
19930;DHT22;10127;47.780;9.606;2023-06-10T15:31:54;29.90;62.30
19930;DHT22;10127;47.780;9.606;2023-06-10T15:34:19;29.50;63.20
19930;DHT22;10127;47.780;9.606;2023-06-10T15:36:45;29.20;63.20
19930;DHT22;10127;47.780;9.606;2023-06-10T15:39:10;28.80;63.60
19930;DHT22;10127;47.780;9.606;2023-06-10T15:41:36;30.50;63.20
19930;DHT22;10127;47.780;9.606;2023-06-10T15:44:02;36.90;54.60
19930;DHT22;10127;47.780;9.606;2023-06-10T15:46:29;42.10;47.60
19930;DHT22;10127;47.780;9.606;2023-06-10T15:48:55;44.40;44.30
19930;DHT22;10127;47.780;9.606;2023-06-10T15:51:21;45.80;41.70
19930;DHT22;10127;47.780;9.606;2023-06-10T15:53:46;48.60;38.90
19930;DHT22;10127;47.780;9.606;2023-06-10T15:56:13;48.60;37.70
19930;DHT22;10127;47.780;9.606;2023-06-10T15:58:39;49.60;37.40
19930;DHT22;10127;47.780;9.606;2023-06-10T16:01:05;42.40;40.10